Hanze Gdansk — PCRT — position and weather

sailwx.info

Track history (hours):
 
Tides and Currents Weather Stations Pressure Air Temp Water Temp Dewpoint Dewpoint Depression Visibility Wind Speed Wind Dir Waves Ship Positions

Hanze Gdansk

Last reported at 2017-Nov-24 18:30 UTC. Time now 2017-Nov-24 18:49 UTC.
Position S 24°24' W 046°28'.

Length 180 m; draft 8.6 m.

Type: Cargo ship. MMSI: 246894000.

Date/timePositionNaut miles runAvg speedWind from/ knotsBaromVisibWave heightAir tempDewpointWater temp
2017-Nov-24 18:30S 24°24' W 046°28'510.6
2017-Nov-24 18:00S 24°19' W 046°27'510.5
2017-Nov-24 17:30S 24°14' W 046°25'510.2
2017-Nov-24 17:00S 24°09' W 046°24'5 9.3
2017-Nov-24 16:30S 24°04' W 046°22'4 9.0
2017-Nov-24 16:00S 24°00' W 046°20'3 5.7
2017-Nov-24 15:29S 23°58' W 046°18'1 0.6
2017-Nov-24 13:45S 23°57' W 046°19'0 0.0
2017-Nov-24 08:58S 23°57' W 046°19'0 0.0
2017-Nov-23 07:21S 23°57' W 046°19'0 0.0
2017-Nov-23 06:33S 23°57' W 046°19'0 0.1
2017-Nov-23 06:27S 23°57' W 046°19'0 0.0
2017-Nov-23 05:51S 23°57' W 046°19'0 0.0
2017-Nov-23 05:30S 23°57' W 046°19'0 0.0
2017-Nov-23 04:57S 23°57' W 046°19'0 0.0
2017-Nov-23 04:27S 23°57' W 046°19'0 0.0
2017-Nov-23 03:45S 23°57' W 046°19'0 0.0
2017-Nov-23 03:27S 23°57' W 046°19'0 0.0
2017-Nov-23 02:21S 23°57' W 046°19'0 0.0
2017-Nov-23 01:51S 23°57' W 046°19'0 0.0
2017-Nov-23 01:27S 23°57' W 046°19'0 0.0
2017-Nov-23 00:57S 23°57' W 046°19'0 0.0
2017-Nov-23 00:27S 23°57' W 046°19'0 0.0
2017-Nov-22 23:51S 23°57' W 046°19'0 0.0
2017-Nov-22 23:21S 23°57' W 046°19'0 0.0
2017-Nov-22 22:57S 23°57' W 046°19'0 0.0
2017-Nov-22 22:27S 23°57' W 046°19'0 0.0
2017-Nov-22 21:51S 23°57' W 046°19'0 0.0
2017-Nov-22 21:27S 23°57' W 046°19'0 0.0
2017-Nov-22 20:57S 23°57' W 046°19'  
2017-Nov-20 00:03S 23°57' W 046°19'0 0.0
2017-Nov-19 21:39S 23°57' W 046°19'0 0.0
2017-Nov-19 21:27S 23°57' W 046°19'0 0.0
2017-Nov-19 20:51S 23°57' W 046°19'0 0.0
2017-Nov-19 19:45S 23°57' W 046°19'0 0.0
2017-Nov-19 18:39S 23°57' W 046°19'0 0.0
2017-Nov-19 17:27S 23°57' W 046°19'0 0.0
2017-Nov-19 15:09S 23°57' W 046°19'0 0.0
2017-Nov-19 04:25S 23°57' W 046°19'1 1.4
2017-Nov-19 04:00S 23°57' W 046°18'2 4.4
2017-Nov-19 03:29S 23°60' W 046°18'4 7.7
2017-Nov-19 03:00S 24°02' W 046°21'4 7.7
2017-Nov-19 02:30S 24°06' W 046°22'4 8.1
2017-Nov-19 02:00S 24°09' W 046°21'4 8.5
2017-Nov-19 01:30S 24°13' W 046°18'1 1.7
2017-Nov-19 00:58S 24°12' W 046°17'0 0.1
2017-Nov-19 00:26S 24°12' W 046°17'0 0.1
2017-Nov-18 23:58S 24°12' W 046°17'0 0.0
2017-Nov-18 23:28S 24°12' W 046°17'0 0.0
2017-Nov-18 22:58S 24°12' W 046°17'0 0.0
2017-Nov-18 22:28S 24°12' W 046°17'0 0.0
2017-Nov-18 21:52S 24°12' W 046°17'0 0.1
2017-Nov-18 21:28S 24°12' W 046°17'0 0.0
2017-Nov-18 20:58S 24°12' W 046°17'0 0.0
2017-Nov-18 20:28S 24°12' W 046°17'0 0.0
2017-Nov-18 19:58S 24°12' W 046°17'0 0.0
2017-Nov-18 19:25S 24°12' W 046°17'0 0.0
2017-Nov-18 18:58S 24°12' W 046°17'0 0.0
2017-Nov-18 18:28S 24°12' W 046°17'0 0.0
2017-Nov-18 17:58S 24°12' W 046°17'0 0.0
2017-Nov-18 17:28S 24°12' W 046°17'0 0.0
2017-Nov-18 16:58S 24°12' W 046°17'0 0.1
2017-Nov-18 16:28S 24°12' W 046°17'0 0.0
2017-Nov-18 15:58S 24°12' W 046°17'0 0.0
2017-Nov-18 15:28S 24°12' W 046°17'0 0.0
2017-Nov-18 14:58S 24°12' W 046°17'0 0.0
2017-Nov-18 14:28S 24°12' W 046°17'0 0.0
2017-Nov-18 13:58S 24°12' W 046°17'0 0.0
2017-Nov-18 13:28S 24°12' W 046°17'0 0.0
2017-Nov-18 12:58S 24°12' W 046°17'0 0.0
2017-Nov-18 12:28S 24°12' W 046°17'0 0.0
2017-Nov-18 11:58S 24°12' W 046°17'0 0.0
2017-Nov-18 11:28S 24°12' W 046°17'0 0.0
2017-Nov-18 10:49S 24°12' W 046°17'0 0.0
2017-Nov-18 10:28S 24°12' W 046°17'0 0.0
2017-Nov-18 09:58S 24°12' W 046°17'0 0.0
2017-Nov-18 09:22S 24°12' W 046°17'0 0.0
2017-Nov-18 08:58S 24°12' W 046°17'0 0.0
2017-Nov-18 08:28S 24°12' W 046°17'0 0.0
2017-Nov-18 07:58S 24°12' W 046°17'0 0.0
2017-Nov-18 07:28S 24°12' W 046°17'0 0.0
2017-Nov-18 06:58S 24°12' W 046°17'0 0.0
2017-Nov-18 06:28S 24°12' W 046°17'0 0.0
2017-Nov-18 05:58S 24°12' W 046°17'0 0.0
2017-Nov-18 05:22S 24°12' W 046°17'0 0.2
2017-Nov-18 04:58S 24°12' W 046°17'0 0.2
2017-Nov-18 04:28S 24°12' W 046°17'0 0.0
2017-Nov-18 03:58S 24°12' W 046°17'0 0.1
2017-Nov-18 03:28S 24°12' W 046°17'0 0.1
2017-Nov-18 02:58S 24°12' W 046°17'0 0.0
2017-Nov-18 02:25S 24°12' W 046°17'0 0.0
2017-Nov-18 01:58S 24°12' W 046°17'0 0.0
2017-Nov-18 01:25S 24°12' W 046°17'0 0.1
2017-Nov-18 00:58S 24°12' W 046°17'0 0.0
2017-Nov-18 00:25S 24°12' W 046°17'0 0.0
2017-Nov-17 23:58S 24°12' W 046°17'0 0.0
2017-Nov-17 23:25S 24°12' W 046°17'0 0.1
2017-Nov-17 22:58S 24°12' W 046°17'0 0.0
2017-Nov-17 22:28S 24°12' W 046°17'0 0.1
2017-Nov-17 21:52S 24°12' W 046°17'0 0.0
2017-Nov-17 21:28S 24°12' W 046°17'0 0.0
2017-Nov-17 20:58S 24°12' W 046°17'0 0.1
2017-Nov-17 20:28S 24°12' W 046°17'0 0.2
2017-Nov-17 19:58S 24°12' W 046°17'0 0.0
2017-Nov-17 19:28S 24°12' W 046°17'0 0.0
2017-Nov-17 18:58S 24°12' W 046°17'0 0.1
2017-Nov-17 18:28S 24°12' W 046°17'0 0.0
2017-Nov-17 17:58S 24°12' W 046°17'0 0.0
2017-Nov-17 17:28S 24°12' W 046°17'0 0.0
2017-Nov-17 16:58S 24°12' W 046°17'0 0.0
2017-Nov-17 16:28S 24°12' W 046°17'0 0.0
2017-Nov-17 15:52S 24°12' W 046°17'0 0.0
2017-Nov-17 15:28S 24°12' W 046°17'0 0.0
2017-Nov-17 14:58S 24°12' W 046°17'0 0.0
2017-Nov-17 14:28S 24°12' W 046°17'0 0.0
2017-Nov-17 13:58S 24°12' W 046°17'0 0.0
2017-Nov-17 13:28S 24°12' W 046°17'0 0.0
2017-Nov-17 12:49S 24°12' W 046°17'0 0.0
2017-Nov-17 12:19S 24°12' W 046°17'0 0.4
2017-Nov-17 12:00S 24°12' W 046°17'3 5.7
2017-Nov-17 11:30S 24°10' W 046°19'4 8.6
2017-Nov-17 11:00S 24°11' W 046°15'4 7.9
2017-Nov-17 10:30S 24°10' W 046°10'0 0.3
2017-Nov-17 10:00S 24°10' W 046°10'0 0.0
2017-Nov-17 08:57S 24°10' W 046°10'0 0.0
2017-Nov-17 08:24S 24°10' W 046°10'0 0.0
2017-Nov-17 07:54S 24°10' W 046°10'0 0.0
2017-Nov-17 07:30S 24°10' W 046°10'0 0.1
2017-Nov-17 06:57S 24°10' W 046°10'0 0.1
2017-Nov-17 06:30S 24°10' W 046°10'0 0.1
2017-Nov-17 05:12S 24°10' W 046°10'0 0.4
2017-Nov-17 04:57S 24°10' W 046°10'0 0.2
2017-Nov-17 04:27S 24°10' W 046°10'0 0.1
2017-Nov-17 03:54S 24°10' W 046°10'0 0.2
2017-Nov-17 03:24S 24°10' W 046°10'0 0.2
2017-Nov-17 02:57S 24°10' W 046°10'0 0.0
2017-Nov-17 02:27S 24°10' W 046°10'0 0.1
2017-Nov-17 02:00S 24°10' W 046°10'0 0.0
2017-Nov-17 01:30S 24°10' W 046°10'0 0.0
2017-Nov-17 00:57S 24°10' W 046°10'0 0.0
2017-Nov-17 00:27S 24°10' W 046°10'0 0.1
2017-Nov-16 23:57S 24°10' W 046°10'0 0.1
2017-Nov-16 23:30S 24°10' W 046°10'0 0.0
2017-Nov-16 23:00S 24°10' W 046°10'0 0.1
2017-Nov-16 22:30S 24°10' W 046°10'0 0.1
2017-Nov-16 21:57S 24°10' W 046°10'0 0.2
2017-Nov-16 21:30S 24°10' W 046°10'0 0.2
2017-Nov-16 20:45S 24°10' W 046°10'0 0.0
2017-Nov-16 20:27S 24°10' W 046°10'0 0.0
2017-Nov-16 19:57S 24°10' W 046°10'0 0.0
2017-Nov-16 19:30S 24°10' W 046°10'0 0.0
2017-Nov-16 19:00S 24°10' W 046°10'0 0.0
2017-Nov-16 18:30S 24°10' W 046°10'0 0.0
2017-Nov-16 17:57S 24°10' W 046°10'0 0.0
2017-Nov-16 17:15S 24°10' W 046°10'0 0.0
2017-Nov-16 16:54S 24°10' W 046°10'0 0.0
2017-Nov-16 16:30S 24°10' W 046°10'0 0.0
2017-Nov-16 15:57S 24°10' W 046°10'0 0.0
2017-Nov-16 14:48S 24°10' W 046°10'0 0.0
2017-Nov-16 14:24S 24°10' W 046°10'0 0.0
2017-Nov-16 14:00S 24°10' W 046°10'0 0.0
2017-Nov-16 13:30S 24°10' W 046°10'0 0.0
2017-Nov-16 13:00S 24°10' W 046°10'0 0.0
2017-Nov-16 12:27S 24°10' W 046°10'0 0.0
2017-Nov-16 12:00S 24°10' W 046°10'0 0.0
2017-Nov-16 11:30S 24°10' W 046°10'0 0.0
2017-Nov-16 10:57S 24°10' W 046°10'0 0.0
2017-Nov-16 10:27S 24°10' W 046°10'0 0.0
2017-Nov-16 10:00S 24°10' W 046°10'0 0.0
2017-Nov-16 09:30S 24°10' W 046°10'0 0.0
2017-Nov-16 08:57S 24°10' W 046°10'0 0.0
2017-Nov-16 08:18S 24°10' W 046°10'0 0.0
2017-Nov-16 07:48S 24°10' W 046°10'0 0.0
2017-Nov-16 07:27S 24°10' W 046°10'0 0.0
2017-Nov-16 06:51S 24°10' W 046°10'0 0.0
2017-Nov-16 05:30S 24°10' W 046°10'0 0.0
2017-Nov-16 04:45S 24°10' W 046°10'0 0.0
2017-Nov-16 04:15S 24°10' W 046°10'0 0.0
2017-Nov-16 03:54S 24°10' W 046°10'0 0.0
2017-Nov-16 03:30S 24°10' W 046°10'0 0.0
2017-Nov-16 02:57S 24°10' W 046°10'0 0.0
2017-Nov-16 02:03S 24°10' W 046°10'0 0.1
2017-Nov-16 01:57S 24°10' W 046°10'0 0.0
2017-Nov-16 01:30S 24°10' W 046°10'0 0.0
2017-Nov-16 00:57S 24°10' W 046°10'0 0.0
2017-Nov-16 00:24S 24°10' W 046°10'0 0.0
2017-Nov-15 23:51S 24°10' W 046°10'0 0.0
2017-Nov-15 23:21S 24°10' W 046°10'0 0.0
2017-Nov-15 22:57S 24°10' W 046°10'0 0.0
2017-Nov-15 22:30S 24°10' W 046°10'0 0.0
2017-Nov-15 21:57S 24°10' W 046°10'0 0.0
2017-Nov-15 21:30S 24°10' W 046°10'0 0.0
2017-Nov-15 21:00S 24°10' W 046°10'0 0.0
2017-Nov-15 20:27S 24°10' W 046°10'0 0.0
2017-Nov-15 20:00S 24°10' W 046°10'0 0.0
2017-Nov-15 19:21S 24°10' W 046°10'0 0.0
2017-Nov-15 18:15S 24°10' W 046°10'0 0.0
2017-Nov-15 17:51S 24°10' W 046°10'0 0.0
2017-Nov-15 14:18S 24°10' W 046°10'0 0.0
2017-Nov-15 11:57S 24°10' W 046°10'0 0.0
2017-Nov-15 09:03S 24°10' W 046°10'0 0.0
2017-Nov-15 08:51S 24°10' W 046°10'0 0.0
2017-Nov-15 07:12S 24°10' W 046°10'0 0.0
2017-Nov-15 06:18S 24°10' W 046°10'0 0.0
2017-Nov-14 22:33S 24°10' W 046°10'0 0.0
2017-Nov-14 22:15S 24°10' W 046°10'0 0.0
2017-Nov-14 20:09S 24°10' W 046°10'0 0.0
2017-Nov-14 19:54S 24°10' W 046°10'0 0.0
2017-Nov-14 19:27S 24°10' W 046°10'0 0.0
2017-Nov-14 18:57S 24°10' W 046°10'  
Track history (hours):
 
Tides and Currents Weather Stations Pressure Air Temp Water Temp Dewpoint Dewpoint Depression Visibility Wind Speed Wind Dir Waves Ship Positions

Hanze Gdansk

Last reported at 2017-Nov-24 18:30 UTC. Time now 2017-Nov-24 18:49 UTC.
Position S 24°24' W 046°28'.

Length 180 m; draft 8.6 m.

Type: Cargo ship. MMSI: 246894000.

Date/timePositionNaut miles runAvg speedWind from/ knotsBaromVisibWave heightAir tempDewpointWater temp
2017-Nov-24 18:30S 24°24' W 046°28'510.6
2017-Nov-24 18:00S 24°19' W 046°27'510.5
2017-Nov-24 17:30S 24°14' W 046°25'510.2
2017-Nov-24 17:00S 24°09' W 046°24'5 9.3
2017-Nov-24 16:30S 24°04' W 046°22'4 9.0
2017-Nov-24 16:00S 24°00' W 046°20'3 5.7
2017-Nov-24 15:29S 23°58' W 046°18'1 0.6
2017-Nov-24 13:45S 23°57' W 046°19'0 0.0
2017-Nov-24 08:58S 23°57' W 046°19'0 0.0
2017-Nov-23 07:21S 23°57' W 046°19'0 0.0
2017-Nov-23 06:33S 23°57' W 046°19'0 0.1
2017-Nov-23 06:27S 23°57' W 046°19'0 0.0
2017-Nov-23 05:51S 23°57' W 046°19'0 0.0
2017-Nov-23 05:30S 23°57' W 046°19'0 0.0
2017-Nov-23 04:57S 23°57' W 046°19'0 0.0
2017-Nov-23 04:27S 23°57' W 046°19'0 0.0
2017-Nov-23 03:45S 23°57' W 046°19'0 0.0
2017-Nov-23 03:27S 23°57' W 046°19'0 0.0
2017-Nov-23 02:21S 23°57' W 046°19'0 0.0
2017-Nov-23 01:51S 23°57' W 046°19'0 0.0
2017-Nov-23 01:27S 23°57' W 046°19'0 0.0
2017-Nov-23 00:57S 23°57' W 046°19'0 0.0
2017-Nov-23 00:27S 23°57' W 046°19'0 0.0
2017-Nov-22 23:51S 23°57' W 046°19'0 0.0
2017-Nov-22 23:21S 23°57' W 046°19'0 0.0
2017-Nov-22 22:57S 23°57' W 046°19'0 0.0
2017-Nov-22 22:27S 23°57' W 046°19'0 0.0
2017-Nov-22 21:51S 23°57' W 046°19'0 0.0
2017-Nov-22 21:27S 23°57' W 046°19'0 0.0
2017-Nov-22 20:57S 23°57' W 046°19'  
2017-Nov-20 00:03S 23°57' W 046°19'0 0.0
2017-Nov-19 21:39S 23°57' W 046°19'0 0.0
2017-Nov-19 21:27S 23°57' W 046°19'0 0.0
2017-Nov-19 20:51S 23°57' W 046°19'0 0.0
2017-Nov-19 19:45S 23°57' W 046°19'0 0.0
2017-Nov-19 18:39S 23°57' W 046°19'0 0.0
2017-Nov-19 17:27S 23°57' W 046°19'0 0.0
2017-Nov-19 15:09S 23°57' W 046°19'0 0.0
2017-Nov-19 04:25S 23°57' W 046°19'1 1.4
2017-Nov-19 04:00S 23°57' W 046°18'2 4.4
2017-Nov-19 03:29S 23°60' W 046°18'4 7.7
2017-Nov-19 03:00S 24°02' W 046°21'4 7.7
2017-Nov-19 02:30S 24°06' W 046°22'4 8.1
2017-Nov-19 02:00S 24°09' W 046°21'4 8.5
2017-Nov-19 01:30S 24°13' W 046°18'1 1.7
2017-Nov-19 00:58S 24°12' W 046°17'0 0.1
2017-Nov-19 00:26S 24°12' W 046°17'0 0.1
2017-Nov-18 23:58S 24°12' W 046°17'0 0.0
2017-Nov-18 23:28S 24°12' W 046°17'0 0.0
2017-Nov-18 22:58S 24°12' W 046°17'0 0.0
2017-Nov-18 22:28S 24°12' W 046°17'0 0.0
2017-Nov-18 21:52S 24°12' W 046°17'0 0.1
2017-Nov-18 21:28S 24°12' W 046°17'0 0.0
2017-Nov-18 20:58S 24°12' W 046°17'0 0.0
2017-Nov-18 20:28S 24°12' W 046°17'0 0.0
2017-Nov-18 19:58S 24°12' W 046°17'0 0.0
2017-Nov-18 19:25S 24°12' W 046°17'0 0.0
2017-Nov-18 18:58S 24°12' W 046°17'0 0.0
2017-Nov-18 18:28S 24°12' W 046°17'0 0.0
2017-Nov-18 17:58S 24°12' W 046°17'0 0.0
2017-Nov-18 17:28S 24°12' W 046°17'0 0.0
2017-Nov-18 16:58S 24°12' W 046°17'0 0.1
2017-Nov-18 16:28S 24°12' W 046°17'0 0.0
2017-Nov-18 15:58S 24°12' W 046°17'0 0.0
2017-Nov-18 15:28S 24°12' W 046°17'0 0.0
2017-Nov-18 14:58S 24°12' W 046°17'0 0.0
2017-Nov-18 14:28S 24°12' W 046°17'0 0.0
2017-Nov-18 13:58S 24°12' W 046°17'0 0.0
2017-Nov-18 13:28S 24°12' W 046°17'0 0.0
2017-Nov-18 12:58S 24°12' W 046°17'0 0.0
2017-Nov-18 12:28S 24°12' W 046°17'0 0.0
2017-Nov-18 11:58S 24°12' W 046°17'0 0.0
2017-Nov-18 11:28S 24°12' W 046°17'0 0.0
2017-Nov-18 10:49S 24°12' W 046°17'0 0.0
2017-Nov-18 10:28S 24°12' W 046°17'0 0.0
2017-Nov-18 09:58S 24°12' W 046°17'0 0.0
2017-Nov-18 09:22S 24°12' W 046°17'0 0.0
2017-Nov-18 08:58S 24°12' W 046°17'0 0.0
2017-Nov-18 08:28S 24°12' W 046°17'0 0.0
2017-Nov-18 07:58S 24°12' W 046°17'0 0.0
2017-Nov-18 07:28S 24°12' W 046°17'0 0.0
2017-Nov-18 06:58S 24°12' W 046°17'0 0.0
2017-Nov-18 06:28S 24°12' W 046°17'0 0.0
2017-Nov-18 05:58S 24°12' W 046°17'0 0.0
2017-Nov-18 05:22S 24°12' W 046°17'0 0.2
2017-Nov-18 04:58S 24°12' W 046°17'0 0.2
2017-Nov-18 04:28S 24°12' W 046°17'0 0.0
2017-Nov-18 03:58S 24°12' W 046°17'0 0.1
2017-Nov-18 03:28S 24°12' W 046°17'0 0.1
2017-Nov-18 02:58S 24°12' W 046°17'0 0.0
2017-Nov-18 02:25S 24°12' W 046°17'0 0.0
2017-Nov-18 01:58S 24°12' W 046°17'0 0.0
2017-Nov-18 01:25S 24°12' W 046°17'0 0.1
2017-Nov-18 00:58S 24°12' W 046°17'0 0.0
2017-Nov-18 00:25S 24°12' W 046°17'0 0.0
2017-Nov-17 23:58S 24°12' W 046°17'0 0.0
2017-Nov-17 23:25S 24°12' W 046°17'0 0.1
2017-Nov-17 22:58S 24°12' W 046°17'0 0.0
2017-Nov-17 22:28S 24°12' W 046°17'0 0.1
2017-Nov-17 21:52S 24°12' W 046°17'0 0.0
2017-Nov-17 21:28S 24°12' W 046°17'0 0.0
2017-Nov-17 20:58S 24°12' W 046°17'0 0.1
2017-Nov-17 20:28S 24°12' W 046°17'0 0.2
2017-Nov-17 19:58S 24°12' W 046°17'0 0.0
2017-Nov-17 19:28S 24°12' W 046°17'0 0.0
2017-Nov-17 18:58S 24°12' W 046°17'0 0.1
2017-Nov-17 18:28S 24°12' W 046°17'0 0.0
2017-Nov-17 17:58S 24°12' W 046°17'0 0.0
2017-Nov-17 17:28S 24°12' W 046°17'0 0.0
2017-Nov-17 16:58S 24°12' W 046°17'0 0.0
2017-Nov-17 16:28S 24°12' W 046°17'0 0.0
2017-Nov-17 15:52S 24°12' W 046°17'0 0.0
2017-Nov-17 15:28S 24°12' W 046°17'0 0.0
2017-Nov-17 14:58S 24°12' W 046°17'0 0.0
2017-Nov-17 14:28S 24°12' W 046°17'0 0.0
2017-Nov-17 13:58S 24°12' W 046°17'0 0.0
2017-Nov-17 13:28S 24°12' W 046°17'0 0.0
2017-Nov-17 12:49S 24°12' W 046°17'0 0.0
2017-Nov-17 12:19S 24°12' W 046°17'0 0.4
2017-Nov-17 12:00S 24°12' W 046°17'3 5.7
2017-Nov-17 11:30S 24°10' W 046°19'4 8.6
2017-Nov-17 11:00S 24°11' W 046°15'4 7.9
2017-Nov-17 10:30S 24°10' W 046°10'0 0.3
2017-Nov-17 10:00S 24°10' W 046°10'0 0.0
2017-Nov-17 08:57S 24°10' W 046°10'0 0.0
2017-Nov-17 08:24S 24°10' W 046°10'0 0.0
2017-Nov-17 07:54S 24°10' W 046°10'0 0.0
2017-Nov-17 07:30S 24°10' W 046°10'0 0.1
2017-Nov-17 06:57S 24°10' W 046°10'0 0.1
2017-Nov-17 06:30S 24°10' W 046°10'0 0.1
2017-Nov-17 05:12S 24°10' W 046°10'0 0.4
2017-Nov-17 04:57S 24°10' W 046°10'0 0.2
2017-Nov-17 04:27S 24°10' W 046°10'0 0.1
2017-Nov-17 03:54S 24°10' W 046°10'0 0.2
2017-Nov-17 03:24S 24°10' W 046°10'0 0.2
2017-Nov-17 02:57S 24°10' W 046°10'0 0.0
2017-Nov-17 02:27S 24°10' W 046°10'0 0.1
2017-Nov-17 02:00S 24°10' W 046°10'0 0.0
2017-Nov-17 01:30S 24°10' W 046°10'0 0.0
2017-Nov-17 00:57S 24°10' W 046°10'0 0.0
2017-Nov-17 00:27S 24°10' W 046°10'0 0.1
2017-Nov-16 23:57S 24°10' W 046°10'0 0.1
2017-Nov-16 23:30S 24°10' W 046°10'0 0.0
2017-Nov-16 23:00S 24°10' W 046°10'0 0.1
2017-Nov-16 22:30S 24°10' W 046°10'0 0.1
2017-Nov-16 21:57S 24°10' W 046°10'0 0.2
2017-Nov-16 21:30S 24°10' W 046°10'0 0.2
2017-Nov-16 20:45S 24°10' W 046°10'0 0.0
2017-Nov-16 20:27S 24°10' W 046°10'0 0.0
2017-Nov-16 19:57S 24°10' W 046°10'0 0.0
2017-Nov-16 19:30S 24°10' W 046°10'0 0.0
2017-Nov-16 19:00S 24°10' W 046°10'0 0.0
2017-Nov-16 18:30S 24°10' W 046°10'0 0.0
2017-Nov-16 17:57S 24°10' W 046°10'0 0.0
2017-Nov-16 17:15S 24°10' W 046°10'0 0.0
2017-Nov-16 16:54S 24°10' W 046°10'0 0.0
2017-Nov-16 16:30S 24°10' W 046°10'0 0.0
2017-Nov-16 15:57S 24°10' W 046°10'0 0.0
2017-Nov-16 14:48S 24°10' W 046°10'0 0.0
2017-Nov-16 14:24S 24°10' W 046°10'0 0.0
2017-Nov-16 14:00S 24°10' W 046°10'0 0.0
2017-Nov-16 13:30S 24°10' W 046°10'0 0.0
2017-Nov-16 13:00S 24°10' W 046°10'0 0.0
2017-Nov-16 12:27S 24°10' W 046°10'0 0.0
2017-Nov-16 12:00S 24°10' W 046°10'0 0.0
2017-Nov-16 11:30S 24°10' W 046°10'0 0.0
2017-Nov-16 10:57S 24°10' W 046°10'0 0.0
2017-Nov-16 10:27S 24°10' W 046°10'0 0.0
2017-Nov-16 10:00S 24°10' W 046°10'0 0.0
2017-Nov-16 09:30S 24°10' W 046°10'0 0.0
2017-Nov-16 08:57S 24°10' W 046°10'0 0.0
2017-Nov-16 08:18S 24°10' W 046°10'0 0.0
2017-Nov-16 07:48S 24°10' W 046°10'0 0.0
2017-Nov-16 07:27S 24°10' W 046°10'0 0.0
2017-Nov-16 06:51S 24°10' W 046°10'0 0.0
2017-Nov-16 05:30S 24°10' W 046°10'0 0.0
2017-Nov-16 04:45S 24°10' W 046°10'0 0.0
2017-Nov-16 04:15S 24°10' W 046°10'0 0.0
2017-Nov-16 03:54S 24°10' W 046°10'0 0.0
2017-Nov-16 03:30S 24°10' W 046°10'0 0.0
2017-Nov-16 02:57S 24°10' W 046°10'0 0.0
2017-Nov-16 02:03S 24°10' W 046°10'0 0.1
2017-Nov-16 01:57S 24°10' W 046°10'0 0.0
2017-Nov-16 01:30S 24°10' W 046°10'0 0.0
2017-Nov-16 00:57S 24°10' W 046°10'0 0.0
2017-Nov-16 00:24S 24°10' W 046°10'0 0.0
2017-Nov-15 23:51S 24°10' W 046°10'0 0.0
2017-Nov-15 23:21S 24°10' W 046°10'0 0.0
2017-Nov-15 22:57S 24°10' W 046°10'0 0.0
2017-Nov-15 22:30S 24°10' W 046°10'0 0.0
2017-Nov-15 21:57S 24°10' W 046°10'0 0.0
2017-Nov-15 21:30S 24°10' W 046°10'0 0.0
2017-Nov-15 21:00S 24°10' W 046°10'0 0.0
2017-Nov-15 20:27S 24°10' W 046°10'0 0.0
2017-Nov-15 20:00S 24°10' W 046°10'0 0.0
2017-Nov-15 19:21S 24°10' W 046°10'0 0.0
2017-Nov-15 18:15S 24°10' W 046°10'0 0.0
2017-Nov-15 17:51S 24°10' W 046°10'0 0.0
2017-Nov-15 14:18S 24°10' W 046°10'0 0.0
2017-Nov-15 11:57S 24°10' W 046°10'0 0.0
2017-Nov-15 09:03S 24°10' W 046°10'0 0.0
2017-Nov-15 08:51S 24°10' W 046°10'0 0.0
2017-Nov-15 07:12S 24°10' W 046°10'0 0.0
2017-Nov-15 06:18S 24°10' W 046°10'0 0.0
2017-Nov-14 22:33S 24°10' W 046°10'0 0.0
2017-Nov-14 22:15S 24°10' W 046°10'0 0.0
2017-Nov-14 20:09S 24°10' W 046°10'0 0.0
2017-Nov-14 19:54S 24°10' W 046°10'0 0.0
2017-Nov-14 19:27S 24°10' W 046°10'0 0.0
2017-Nov-14 18:57S 24°10' W 046°10'  

Dump ship's entire track history